Time,TemperatureF,DewpointF,PressureIn,WindDirection,WindDirectionDegrees,WindSpeedMPH,WindSpeedGustMPH,Humidity,HourlyPrecipIn,Conditions,Clouds,dailyrainin,SoftwareType,DateUTC
2013-04-20 00:02:00,31.0,27.0,30.10,NNW,339,0.0,0.0,86,0.00,,,0.00,,2013-04-20 05:02:00,
2013-04-20 00:12:00,31.0,27.0,30.10,NNW,339,0.0,0.0,86,0.00,,,0.00,,2013-04-20 05:12:00,
2013-04-20 00:22:00,31.0,27.0,30.10,NNW,339,0.0,0.0,86,0.00,,,0.00,,2013-04-20 05:22:00,
2013-04-20 00:32:00,30.0,28.0,30.10,NNW,339,0.0,0.0,91,0.00,,,0.00,,2013-04-20 05:32:00,
2013-04-20 00:42:00,30.0,28.0,30.10,NNW,339,0.0,0.0,91,0.00,,,0.00,,2013-04-20 05:42:00,
2013-04-20 00:52:00,30.0,28.0,30.11,NNW,336,0.0,0.0,93,0.00,,,0.00,,2013-04-20 05:52:00,
2013-04-20 01:02:00,29.0,27.0,30.12,NNW,336,0.0,0.0,94,0.00,,,0.00,,2013-04-20 06:02:00,
2013-04-20 01:12:00,29.0,27.0,30.12,NNW,336,0.0,0.0,94,0.00,,,0.00,,2013-04-20 06:12:00,
2013-04-20 01:21:00,29.0,27.0,30.13,NNW,336,0.0,0.0,93,0.00,,,0.00,,2013-04-20 06:21:00,
2013-04-20 01:32:00,29.0,27.0,30.13,NNW,336,0.0,0.0,94,0.00,,,0.00,,2013-04-20 06:32:00,
2013-04-20 01:42:00,29.0,27.0,30.13,NNW,336,0.0,0.0,94,0.00,,,0.00,,2013-04-20 06:42:00,
2013-04-20 01:52:00,29.0,27.0,30.13,NNW,336,0.0,0.0,93,0.00,,,0.00,,2013-04-20 06:52:00,
2013-04-20 02:01:00,28.0,26.0,30.13,NNW,336,0.0,0.0,93,0.00,,,0.00,,2013-04-20 07:01:00,
2013-04-20 02:11:00,28.0,26.0,30.13,NNW,336,0.0,0.0,93,0.00,,,0.00,,2013-04-20 07:11:00,
2013-04-20 02:21:00,28.0,27.0,30.13,NNW,336,0.0,0.0,94,0.00,,,0.00,,2013-04-20 07:21:00,
2013-04-20 02:32:00,28.0,27.0,30.13,NNW,336,0.0,0.0,95,0.00,,,0.00,,2013-04-20 07:32:00,
2013-04-20 02:42:00,27.0,26.0,30.13,NNW,336,0.0,0.0,96,0.00,,,0.00,,2013-04-20 07:42:00,
2013-04-20 02:52:00,27.0,26.0,30.13,NNW,336,0.0,0.0,96,0.00,,,0.00,,2013-04-20 07:52:00,
2013-04-20 03:01:00,26.0,25.0,30.13,NNW,336,0.0,0.0,97,0.00,,,0.00,,2013-04-20 08:01:00,
2013-04-20 03:11:00,26.0,25.0,30.13,NNW,336,0.0,0.0,97,0.00,,,0.00,,2013-04-20 08:11:00,
2013-04-20 03:21:00,26.0,26.0,30.14,NNW,336,0.0,0.0,98,0.00,,,0.00,,2013-04-20 08:21:00,
2013-04-20 03:31:00,25.0,24.0,30.14,NNW,336,0.0,0.0,97,0.00,,,0.00,,2013-04-20 08:31:00,
2013-04-20 03:42:00,25.0,24.0,30.14,NNW,336,0.0,0.0,97,0.00,,,0.00,,2013-04-20 08:42:00,
2013-04-20 03:52:00,25.0,25.0,30.14,NNW,336,0.0,0.0,98,0.00,,,0.00,,2013-04-20 08:52:00,
2013-04-20 04:01:00,25.0,25.0,30.14,NNW,336,0.0,0.0,98,0.00,,,0.00,,2013-04-20 09:01:00,
2013-04-20 04:12:00,25.0,25.0,30.15,NNW,336,0.0,0.0,98,0.00,,,0.00,,2013-04-20 09:12:00,
2013-04-20 04:21:00,25.0,25.0,30.15,NNW,336,0.0,0.0,98,0.00,,,0.00,,2013-04-20 09:21:00,
2013-04-20 04:32:00,24.0,24.0,30.16,NNW,336,0.0,0.0,98,0.00,,,0.00,,2013-04-20 09:32:00,
2013-04-20 04:43:00,24.0,24.0,30.16,NNW,336,0.0,0.0,98,0.00,,,0.00,,2013-04-20 09:43:00,
2013-04-20 04:53:00,24.0,24.0,30.16,NNW,336,0.0,0.0,98,0.00,,,0.00,,2013-04-20 09:53:00,
2013-04-20 05:02:00,23.0,23.0,30.17,NNW,336,0.0,0.0,99,0.00,,,0.00,,2013-04-20 10:02:00,
2013-04-20 05:12:00,23.0,23.0,30.17,NNW,336,0.0,0.0,99,0.00,,,0.00,,2013-04-20 10:12:00,
2013-04-20 05:23:00,23.0,23.0,30.17,NNW,336,0.0,0.0,99,0.00,,,0.00,,2013-04-20 10:23:00,
2013-04-20 05:33:00,24.0,24.0,30.17,NNW,336,0.0,0.0,99,0.00,,,0.00,,2013-04-20 10:33:00,
2013-04-20 05:42:00,23.0,23.0,30.18,NNW,336,0.0,0.0,99,0.00,,,0.00,,2013-04-20 10:42:00,
2013-04-20 05:53:00,23.0,23.0,30.18,NNW,336,0.0,0.0,99,0.00,,,0.00,,2013-04-20 10:53:00,
2013-04-20 06:02:00,24.0,24.0,30.17,NNE,20,3.0,3.0,99,0.00,,,0.00,,2013-04-20 11:02:00,
2013-04-20 06:12:00,24.0,24.0,30.16,NNE,13,3.0,5.0,99,0.00,,,0.00,,2013-04-20 11:12:00,
2013-04-20 06:23:00,24.0,24.0,30.16,NNE,13,3.0,5.0,99,0.00,,,0.00,,2013-04-20 11:23:00,
2013-04-20 06:32:00,23.0,23.0,30.17,NNE,18,0.0,0.0,99,0.00,,,0.00,,2013-04-20 11:32:00,
2013-04-20 06:42:00,23.0,23.0,30.17,NNE,18,0.0,0.0,99,0.00,,,0.00,,2013-04-20 11:42:00,
2013-04-20 06:53:00,22.0,22.0,30.18,NNE,18,0.0,0.0,99,0.00,,,0.00,,2013-04-20 11:53:00,
2013-04-20 07:02:00,23.0,23.0,30.19,NNE,18,0.0,0.0,99,0.00,,,0.00,,2013-04-20 12:02:00,
2013-04-20 07:11:00,23.0,23.0,30.19,NNE,18,0.0,0.0,99,0.00,,,0.00,,2013-04-20 12:11:00,
2013-04-20 07:22:00,23.0,23.0,30.19,NNE,18,0.0,0.0,99,0.00,,,0.00,,2013-04-20 12:22:00,
2013-04-20 07:32:00,24.0,24.0,30.20,NNE,18,0.0,0.0,99,0.00,,,0.00,,2013-04-20 12:32:00,
2013-04-20 07:42:00,24.0,24.0,30.20,NNE,18,0.0,0.0,99,0.00,,,0.00,,2013-04-20 12:42:00,
2013-04-20 07:52:00,23.0,23.0,30.21,South,186,0.0,0.0,99,0.00,,,0.00,,2013-04-20 12:52:00,
2013-04-20 08:02:00,25.0,25.0,30.21,SSW,209,0.0,0.0,99,0.00,,,0.00,,2013-04-20 13:02:00,
2013-04-20 08:11:00,26.0,26.0,30.21,SSW,209,0.0,0.0,98,0.00,,,0.00,,2013-04-20 13:11:00,
2013-04-20 08:21:00,26.0,26.0,30.21,SSW,209,0.0,0.0,98,0.00,,,0.00,,2013-04-20 13:21:00,
2013-04-20 08:31:00,27.0,25.0,30.22,SSW,209,0.0,0.0,92,0.00,,,0.00,,2013-04-20 13:31:00,
2013-04-20 08:42:00,28.0,26.0,30.22,SSW,209,0.0,0.0,92,0.00,,,0.00,,2013-04-20 13:42:00,
2013-04-20 08:52:00,28.0,26.0,30.22,SSW,209,0.0,0.0,92,0.00,,,0.00,,2013-04-20 13:52:00,
2013-04-20 09:02:00,29.0,26.0,30.22,SSW,209,0.0,0.0,90,0.00,,,0.00,,2013-04-20 14:02:00,
2013-04-20 09:11:00,30.0,27.0,30.23,SSW,208,0.0,2.0,88,0.00,,,0.00,,2013-04-20 14:11:00,
2013-04-20 09:21:00,30.0,27.0,30.23,SSW,208,0.0,2.0,88,0.00,,,0.00,,2013-04-20 14:21:00,
2013-04-20 09:31:00,30.0,25.0,30.24,ENE,58,1.0,2.0,83,0.00,,,0.00,,2013-04-20 14:31:00,
2013-04-20 09:42:00,30.0,25.0,30.24,ENE,58,1.0,2.0,83,0.00,,,0.00,,2013-04-20 14:42:00,
2013-04-20 09:52:00,30.0,25.0,30.23,East,92,3.0,5.0,81,0.00,,,0.00,,2013-04-20 14:52:00,
2013-04-20 10:01:00,31.0,26.0,30.23,NE,47,0.0,3.0,80,0.00,,,0.00,,2013-04-20 15:01:00,
2013-04-20 10:11:00,31.0,26.0,30.23,NE,47,0.0,3.0,80,0.00,,,0.00,,2013-04-20 15:11:00,
2013-04-20 10:21:00,32.0,27.0,30.24,SE,139,1.0,3.0,80,0.00,,,0.00,,2013-04-20 15:21:00,
2013-04-20 10:33:00,32.0,26.0,30.24,East,94,5.0,6.0,77,0.00,,,0.00,,2013-04-20 15:33:00,
2013-04-20 10:43:00,33.0,26.0,30.24,ESE,115,5.0,6.0,76,0.00,,,0.00,,2013-04-20 15:43:00,
2013-04-20 10:53:00,33.0,26.0,30.24,ESE,115,5.0,6.0,76,0.00,,,0.00,,2013-04-20 15:53:00,
2013-04-20 11:03:00,33.0,27.0,30.24,ESE,102,0.0,2.0,77,0.00,,,0.00,,2013-04-20 16:03:00,
2013-04-20 11:12:00,33.0,26.0,30.24,South,174,2.0,6.0,74,0.00,,,0.00,,2013-04-20 16:12:00,
2013-04-20 11:23:00,33.0,26.0,30.24,South,174,2.0,6.0,74,0.00,,,0.00,,2013-04-20 16:23:00,
2013-04-20 11:32:00,33.0,24.0,30.24,SE,130,5.0,7.0,70,0.00,,,0.00,,2013-04-20 16:32:00,
2013-04-20 11:42:00,33.0,25.0,30.24,SSE,156,9.0,12.0,73,0.00,,,0.00,,2013-04-20 16:42:00,
2013-04-20 11:53:00,33.0,25.0,30.24,SSE,156,9.0,12.0,73,0.00,,,0.00,,2013-04-20 16:53:00,
2013-04-20 12:02:00,34.0,25.0,30.24,SE,136,5.0,7.0,70,0.00,,,0.00,,2013-04-20 17:02:00,
2013-04-20 12:12:00,33.0,21.0,30.24,SE,142,7.0,7.0,60,0.00,,,0.00,,2013-04-20 17:12:00,
2013-04-20 12:23:00,33.0,21.0,30.24,SE,142,7.0,7.0,60,0.00,,,0.00,,2013-04-20 17:23:00,
2013-04-20 12:33:00,35.0,26.0,30.24,SE,137,5.0,8.0,69,0.00,,,0.00,,2013-04-20 17:33:00,
2013-04-20 12:42:00,35.0,26.0,30.24,SE,137,5.0,8.0,69,0.00,,,0.00,,2013-04-20 17:42:00,
2013-04-20 12:52:00,35.0,26.0,30.23,SE,125,8.0,10.0,70,0.00,,,0.00,,2013-04-20 17:52:00,
2013-04-20 13:02:00,35.0,26.0,30.22,WNW,286,2.0,7.0,70,0.00,,,0.00,,2013-04-20 18:02:00,
2013-04-20 13:12:00,36.0,27.0,30.22,SW,220,5.0,8.0,69,0.00,,,0.00,,2013-04-20 18:12:00,
2013-04-20 13:22:00,36.0,27.0,30.22,SW,220,5.0,8.0,69,0.00,,,0.00,,2013-04-20 18:22:00,
2013-04-20 13:32:00,36.0,26.0,30.22,South,174,5.0,6.0,67,0.00,,,0.00,,2013-04-20 18:32:00,
2013-04-20 13:42:00,37.0,28.0,30.22,SSE,164,5.0,8.0,69,0.00,,,0.00,,2013-04-20 18:42:00,
2013-04-20 13:52:00,37.0,28.0,30.22,SSE,164,5.0,8.0,69,0.00,,,0.00,,2013-04-20 18:52:00,
2013-04-20 14:01:00,36.0,27.0,30.22,SSE,160,5.0,7.0,70,0.00,,,0.00,,2013-04-20 19:01:00,
2013-04-20 14:11:00,36.0,26.0,30.22,SE,133,7.0,9.0,68,0.00,,,0.00,,2013-04-20 19:11:00,
2013-04-20 14:21:00,36.0,26.0,30.22,SE,133,7.0,9.0,68,0.00,,,0.00,,2013-04-20 19:21:00,
2013-04-20 14:32:00,37.0,28.0,30.21,SE,143,5.0,9.0,70,0.00,,,0.00,,2013-04-20 19:32:00,
2013-04-20 14:42:00,36.0,28.0,30.22,ESE,113,5.0,6.0,71,0.00,,,0.00,,2013-04-20 19:42:00,
2013-04-20 14:52:00,36.0,28.0,30.22,ESE,113,5.0,6.0,71,0.00,,,0.00,,2013-04-20 19:52:00,
2013-04-20 15:02:00,36.0,27.0,30.21,SE,146,6.0,8.0,69,0.00,,,0.00,,2013-04-20 20:02:00,
2013-04-20 15:12:00,37.0,27.0,30.21,SE,137,5.0,7.0,68,0.00,,,0.00,,2013-04-20 20:12:00,
2013-04-20 15:21:00,37.0,27.0,30.21,SE,137,5.0,7.0,68,0.00,,,0.00,,2013-04-20 20:21:00,
2013-04-20 15:32:00,37.0,27.0,30.19,SE,133,5.0,7.0,68,0.00,,,0.00,,2013-04-20 20:32:00,
2013-04-20 15:42:00,37.0,27.0,30.19,SE,133,5.0,7.0,68,0.00,,,0.00,,2013-04-20 20:42:00,
2013-04-20 15:52:00,37.0,27.0,30.19,SE,145,7.0,10.0,68,0.00,,,0.00,,2013-04-20 20:52:00,
2013-04-20 16:01:00,38.0,27.0,30.19,ESE,118,5.0,8.0,64,0.00,,,0.00,,2013-04-20 21:01:00,
2013-04-20 16:12:00,39.0,27.0,30.18,SSE,157,3.0,7.0,62,0.00,,,0.00,,2013-04-20 21:12:00,
2013-04-20 16:21:00,39.0,27.0,30.18,SSE,157,3.0,7.0,62,0.00,,,0.00,,2013-04-20 21:21:00,
2013-04-20 16:32:00,39.0,27.0,30.18,South,169,3.0,6.0,61,0.00,,,0.00,,2013-04-20 21:32:00,
2013-04-20 16:43:00,39.0,27.0,30.18,South,169,3.0,6.0,61,0.00,,,0.00,,2013-04-20 21:43:00,
2013-04-20 16:53:00,39.0,27.0,30.17,SE,131,10.0,15.0,61,0.00,,,0.00,,2013-04-20 21:53:00,
2013-04-20 17:02:00,40.0,28.0,30.16,SE,133,3.0,5.0,61,0.00,,,0.00,,2013-04-20 22:02:00,
2013-04-20 17:12:00,40.0,28.0,30.17,SE,133,9.0,10.0,61,0.00,,,0.00,,2013-04-20 22:12:00,
2013-04-20 17:22:00,40.0,28.0,30.17,SE,133,9.0,10.0,61,0.00,,,0.00,,2013-04-20 22:22:00,
2013-04-20 17:32:00,40.0,28.0,30.16,SE,136,7.0,13.0,62,0.00,,,0.00,,2013-04-20 22:32:00,
2013-04-20 17:42:00,40.0,28.0,30.16,SE,136,7.0,13.0,62,0.00,,,0.00,,2013-04-20 22:42:00,
2013-04-20 17:53:00,40.0,27.0,30.16,SE,134,7.0,12.0,59,0.00,,,0.00,,2013-04-20 22:53:00,
2013-04-20 18:02:00,41.0,29.0,30.15,SSE,165,7.0,12.0,62,0.00,,,0.00,,2013-04-20 23:02:00,
2013-04-20 18:11:00,41.0,29.0,30.15,SE,144,8.0,9.0,62,0.00,,,0.00,,2013-04-20 23:11:00,
2013-04-20 18:22:00,41.0,29.0,30.15,SE,144,8.0,9.0,62,0.00,,,0.00,,2013-04-20 23:22:00,
2013-04-20 18:32:00,41.0,28.0,30.14,SE,143,10.0,14.0,60,0.00,,,0.00,,2013-04-20 23:32:00,
2013-04-20 18:42:00,41.0,28.0,30.14,SE,143,10.0,14.0,60,0.00,,,0.00,,2013-04-20 23:42:00,
2013-04-20 18:53:00,42.0,29.0,30.14,SE,138,8.0,10.0,60,0.00,,,0.00,,2013-04-20 23:53:00,
2013-04-20 19:01:00,41.0,29.0,30.13,SE,140,6.0,9.0,62,0.00,,,0.00,,2013-04-21 00:01:00,
2013-04-20 19:11:00,41.0,29.0,30.13,SE,140,6.0,9.0,62,0.00,,,0.00,,2013-04-21 00:11:00,
2013-04-20 19:21:00,42.0,30.0,30.14,ESE,123,8.0,13.0,62,0.00,,,0.00,,2013-04-21 00:21:00,
2013-04-20 19:32:00,42.0,30.0,30.14,SE,135,6.0,8.0,62,0.00,,,0.00,,2013-04-21 00:32:00,
2013-04-20 19:42:00,42.0,30.0,30.14,SE,135,6.0,8.0,62,0.00,,,0.00,,2013-04-21 00:42:00,
2013-04-20 19:52:00,42.0,30.0,30.14,ESE,122,5.0,6.0,63,0.00,,,0.00,,2013-04-21 00:52:00,
2013-04-20 20:01:00,42.0,31.0,30.15,SE,124,0.0,0.0,64,0.00,,,0.00,,2013-04-21 01:01:00,
2013-04-20 20:11:00,42.0,31.0,30.15,SE,124,0.0,0.0,64,0.00,,,0.00,,2013-04-21 01:11:00,
2013-04-20 20:21:00,42.0,30.0,30.15,ESE,107,2.0,6.0,63,0.00,,,0.00,,2013-04-21 01:21:00,
2013-04-20 20:31:00,42.0,31.0,30.15,East,82,2.0,5.0,66,0.00,,,0.00,,2013-04-21 01:31:00,
2013-04-20 20:42:00,42.0,31.0,30.15,East,82,2.0,5.0,66,0.00,,,0.00,,2013-04-21 01:42:00,
2013-04-20 20:52:00,41.0,31.0,30.16,East,95,2.0,2.0,68,0.00,,,0.00,,2013-04-21 01:52:00,
2013-04-20 21:01:00,41.0,32.0,30.17,ESE,110,5.0,6.0,70,0.00,,,0.00,,2013-04-21 02:01:00,
2013-04-20 21:11:00,41.0,32.0,30.17,ESE,110,5.0,6.0,70,0.00,,,0.00,,2013-04-21 02:11:00,
2013-04-20 21:21:00,41.0,32.0,30.19,East,90,0.0,0.0,70,0.00,,,0.00,,2013-04-21 02:21:00,
2013-04-20 21:32:00,41.0,32.0,30.19,East,90,0.0,0.0,71,0.00,,,0.00,,2013-04-21 02:32:00,
2013-04-20 21:41:00,41.0,32.0,30.19,East,90,0.0,0.0,71,0.00,,,0.00,,2013-04-21 02:41:00,
2013-04-20 21:52:00,41.0,32.0,30.19,ESE,111,2.0,3.0,70,0.00,,,0.00,,2013-04-21 02:52:00,
2013-04-20 22:01:00,40.0,31.0,30.20,East,90,0.0,0.0,70,0.00,,,0.00,,2013-04-21 03:01:00,
2013-04-20 22:11:00,40.0,31.0,30.20,East,90,0.0,0.0,70,0.00,,,0.00,,2013-04-21 03:11:00,
2013-04-20 22:21:00,40.0,31.0,30.20,East,90,0.0,0.0,71,0.00,,,0.00,,2013-04-21 03:21:00,
2013-04-20 22:32:00,38.0,31.0,30.18,SE,128,9.0,12.0,76,0.00,,,0.00,,2013-04-21 03:32:00,
2013-04-20 22:42:00,38.0,31.0,30.18,SE,128,9.0,12.0,76,0.00,,,0.00,,2013-04-21 03:42:00,
2013-04-20 22:52:00,40.0,32.0,30.19,NE,42,1.0,6.0,73,0.00,,,0.00,,2013-04-21 03:52:00,
2013-04-20 23:02:00,39.0,31.0,30.18,SE,136,7.0,8.0,73,0.00,,,0.00,,2013-04-21 04:02:00,
2013-04-20 23:12:00,39.0,31.0,30.17,East,100,5.0,7.0,73,0.00,,,0.00,,2013-04-21 04:12:00,
2013-04-20 23:22:00,39.0,31.0,30.17,East,100,5.0,7.0,73,0.00,,,0.00,,2013-04-21 04:22:00,
2013-04-20 23:33:00,39.0,31.0,30.17,East,88,3.0,6.0,74,0.00,,,0.00,,2013-04-21 04:33:00,
2013-04-20 23:42:00,39.0,31.0,30.17,East,88,3.0,6.0,74,0.00,,,0.00,,2013-04-21 04:42:00,
2013-04-20 23:53:00,39.0,31.0,30.16,SE,132,6.0,7.0,74,0.00,,,0.00,,2013-04-21 04:53:00,